Time;durP1;ratioP1;P1;durP2;ratioP2;P2;SDS_P1;SDS_P2;PMS_P1;PMS_P2;Temp;Humidity;BMP_temperature;BMP_pressure;BME280_temperature;BME280_humidity;BME280_pressure;Samples;Min_cycle;Max_cycle;Signal;HPM_P1;HPM_P2
2022/11/04 00:01:09;;;;;;;6.22;3.00;;;;;;;;;;10535323;28;19920;-78
2022/11/04 00:06:23;;;;;;;6.05;2.63;;;;;;;;;;10529471;28;20062;-78
2022/11/04 00:38:13;;;;;;;4.97;2.05;;;;;;;;;;10611880;27;20031;-78
2022/11/04 00:43:15;;;;;;;;;;;;;;;;;;10617774;27;20043;-78
2022/11/04 00:48:17;;;;;;;3.65;1.95;;;;;;;;;;10596031;27;19920;-79
2022/11/04 00:53:21;;;;;;;5.28;2.25;;;;;;;;;;10534024;28;20036;-79
2022/11/04 00:58:24;;;;;;;;;;;;;;;;;;10589220;27;20035;-80
2022/11/04 01:03:27;;;;;;;3.00;1.55;;;;;;;;;;10615053;27;19919;-79
2022/11/04 01:08:31;;;;;;;3.65;1.90;;;;;;;;;;10611017;27;20040;-79
2022/11/04 01:13:33;;;;;;;;;;;;;;;;;;10601068;28;20116;-78
2022/11/04 01:18:35;;;;;;;4.60;1.77;;;;;;;;;;10605099;28;20170;-78
2022/11/04 01:23:40;;;;;;;4.20;1.70;;;;;;;;;;10622527;27;20134;-79
2022/11/04 01:28:42;;;;;;;3.45;1.52;;;;;;;;;;10613907;27;20043;-78
2022/11/04 01:33:45;;;;;;;2.05;0.85;;;;;;;;;;10626658;27;20043;-78
2022/11/04 01:38:49;;;;;;;4.22;1.40;;;;;;;;;;10612433;27;20042;-79
2022/11/04 01:43:53;;;;;;;1.83;1.10;;;;;;;;;;10626291;27;20043;-78
2022/11/04 01:48:58;;;;;;;0.73;0.50;;;;;;;;;;10618294;27;20035;-78
2022/11/04 01:54:03;;;;;;;1.35;0.90;;;;;;;;;;10625019;27;20043;-78
2022/11/04 01:59:07;;;;;;;2.22;1.10;;;;;;;;;;10611891;27;20426;-77
2022/11/04 02:04:26;;;;;;;2.45;0.88;;;;;;;;;;10624735;27;20050;-78
2022/11/04 02:09:31;;;;;;;1.08;0.55;;;;;;;;;;10603453;27;20472;-77
2022/11/04 02:14:34;;;;;;;3.35;0.77;;;;;;;;;;10624753;27;20476;-78
2022/11/04 02:19:47;;;;;;;0.90;0.50;;;;;;;;;;10616560;27;20027;-78
2022/11/04 02:25:07;;;;;;;1.20;0.68;;;;;;;;;;10600637;27;20043;-78
2022/11/04 02:30:13;;;;;;;1.20;0.70;;;;;;;;;;10590328;27;20102;-78
2022/11/04 02:35:21;;;;;;;0.70;0.38;;;;;;;;;;10615770;27;20039;-77
2022/11/04 02:40:29;;;;;;;0.40;0.30;;;;;;;;;;10609362;27;20488;-78
2022/11/04 02:45:38;;;;;;;1.08;0.65;;;;;;;;;;10623526;27;20065;-78
2022/11/04 02:50:44;;;;;;;0.52;0.40;;;;;;;;;;10606420;27;20054;-79
2022/11/04 02:55:48;;;;;;;2.13;0.90;;;;;;;;;;10605368;27;20092;-78
2022/11/04 03:00:54;;;;;;;1.30;0.60;;;;;;;;;;10612659;27;20038;-78
2022/11/04 03:06:08;;;;;;;1.08;0.70;;;;;;;;;;10619111;27;20045;-78
2022/11/04 03:11:11;;;;;;;1.52;0.60;;;;;;;;;;10611917;27;20043;-78
2022/11/04 03:16:17;;;;;;;0.95;0.55;;;;;;;;;;10622164;27;20043;-78
2022/11/04 03:21:20;;;;;;;1.48;0.47;;;;;;;;;;10614840;27;20031;-79
2022/11/04 03:26:28;;;;;;;1.27;0.57;;;;;;;;;;10630582;27;20396;-78
2022/11/04 03:31:36;;;;;;;0.55;0.47;;;;;;;;;;10603363;27;20488;-78
2022/11/04 03:36:38;;;;;;;0.15;0.15;;;;;;;;;;10618519;27;20047;-79
2022/11/04 03:41:43;;;;;;;1.40;0.35;;;;;;;;;;10614373;27;20381;-78
2022/11/04 03:46:47;;;;;;;0.55;0.22;;;;;;;;;;10615405;27;20047;-78
2022/11/04 03:51:50;;;;;;;;;;;;;;;;;;10619507;27;20400;-78
2022/11/04 03:57:05;;;;;;;0.75;0.32;;;;;;;;;;10607490;27;20391;-78
2022/11/04 04:02:19;;;;;;;0.52;0.50;;;;;;;;;;10618687;27;20046;-78
2022/11/04 04:07:29;;;;;;;1.02;0.38;;;;;;;;;;10591802;27;20057;-79
2022/11/04 04:12:35;;;;;;;0.43;0.32;;;;;;;;;;10612683;27;20472;-78
2022/11/04 04:17:42;;;;;;;0.43;0.32;;;;;;;;;;10610569;27;20165;-78
2022/11/04 04:22:48;;;;;;;0.77;0.20;;;;;;;;;;10619648;27;20054;-79
2022/11/04 04:27:55;;;;;;;1.00;0.40;;;;;;;;;;10612866;27;20088;-78
2022/11/04 04:33:01;;;;;;;0.50;0.35;;;;;;;;;;10618925;27;20058;-78
2022/11/04 04:48:48;;;;;;;0.28;0.20;;;;;;;;;;10605958;27;20104;-79
2022/11/04 04:53:50;;;;;;;1.13;0.55;;;;;;;;;;10617957;27;20043;-79
2022/11/04 04:58:53;;;;;;;0.38;0.38;;;;;;;;;;10597631;27;20038;-79
2022/11/04 05:03:57;;;;;;;0.25;0.25;;;;;;;;;;10618511;27;20047;-79
2022/11/04 05:09:00;;;;;;;0.85;0.43;;;;;;;;;;10607279;28;20656;-79
2022/11/04 05:14:03;;;;;;;1.02;0.50;;;;;;;;;;10619236;28;20043;-79
2022/11/04 05:19:07;;;;;;;1.87;0.33;;;;;;;;;;10612937;28;20023;-79
2022/11/04 05:24:10;;;;;;;0.95;0.40;;;;;;;;;;10622203;27;20040;-79
2022/11/04 05:29:13;;;;;;;0.43;0.30;;;;;;;;;;10617140;28;20237;-79
2022/11/04 05:34:22;;;;;;;0.90;0.32;;;;;;;;;;10621091;28;20047;-80
2022/11/04 05:39:24;;;;;;;;;;;;;;;;;;10611032;28;20081;-79
2022/11/04 05:44:27;;;;;;;1.25;0.47;;;;;;;;;;10618071;28;20342;-79
2022/11/04 05:49:32;;;;;;;0.45;0.30;;;;;;;;;;10607542;28;20388;-79
2022/11/04 05:54:36;;;;;;;2.90;0.73;;;;;;;;;;10617038;28;20043;-79
2022/11/04 05:59:39;;;;;;;0.80;0.50;;;;;;;;;;10605446;28;20080;-79
2022/11/04 06:04:43;;;;;;;0.80;0.28;;;;;;;;;;10611477;27;20031;-78
2022/11/04 06:09:46;;;;;;;0.35;0.22;;;;;;;;;;10609514;27;20427;-79
2022/11/04 06:14:48;;;;;;;0.52;0.40;;;;;;;;;;10624002;27;20036;-79
2022/11/04 06:19:52;;;;;;;2.63;0.52;;;;;;;;;;10614527;27;20552;-80
2022/11/04 06:24:55;;;;;;;1.10;0.50;;;;;;;;;;10623326;27;20420;-81
2022/11/04 06:29:58;;;;;;;1.05;0.63;;;;;;;;;;10637045;27;20043;-80
2022/11/04 06:35:02;;;;;;;1.15;0.70;;;;;;;;;;10627612;27;20051;-80
2022/11/04 06:40:07;;;;;;;2.45;0.80;;;;;;;;;;10618322;27;20037;-80
2022/11/04 06:45:11;;;;;;;1.00;0.60;;;;;;;;;;10623398;27;20173;-79
2022/11/04 06:50:15;;;;;;;1.10;0.73;;;;;;;;;;10613495;27;20479;-80
2022/11/04 06:55:17;;;;;;;0.70;0.57;;;;;;;;;;10604157;27;20039;-80
2022/11/04 07:00:20;;;;;;;2.63;0.90;;;;;;;;;;10612604;27;20422;-81
2022/11/04 07:05:24;;;;;;;0.70;0.55;;;;;;;;;;10604438;27;20035;-79
2022/11/04 07:10:27;;;;;;;1.40;0.70;;;;;;;;;;10577164;27;20126;-79
2022/11/04 07:15:31;;;;;;;2.10;0.88;;;;;;;;;;10623698;27;20430;-79
2022/11/04 07:20:36;;;;;;;1.13;0.50;;;;;;;;;;10607270;27;20034;-79
2022/11/04 07:25:38;;;;;;;0.55;0.35;;;;;;;;;;10621436;27;20088;-79
2022/11/04 07:30:41;;;;;;;2.63;0.60;;;;;;;;;;10608284;27;20039;-80
2022/11/04 07:35:45;;;;;;;2.38;0.80;;;;;;;;;;10620911;27;20100;-80
2022/11/04 07:40:48;;;;;;;;;;;;;;;;;;10609337;27;20035;-79
2022/11/04 07:45:58;;;;;;;1.90;1.00;;;;;;;;;;10598370;27;19926;-79
2022/11/04 07:51:04;;;;;;;1.13;0.60;;;;;;;;;;10615723;27;20035;-79
2022/11/04 07:56:10;;;;;;;1.00;0.50;;;;;;;;;;10614693;27;20126;-79
2022/11/04 08:01:15;;;;;;;1.83;0.70;;;;;;;;;;10577139;27;20484;-79
2022/11/04 08:06:19;;;;;;;2.75;1.00;;;;;;;;;;10616561;27;20050;-78
2022/11/04 08:11:24;;;;;;;3.20;1.13;;;;;;;;;;10600833;27;20042;-79
2022/11/04 08:16:27;;;;;;;1.73;0.90;;;;;;;;;;10617766;27;20167;-80
2022/11/04 08:21:37;;;;;;;2.17;0.80;;;;;;;;;;10625262;27;20051;-79
2022/11/04 08:26:41;;;;;;;0.88;0.47;;;;;;;;;;10613579;27;20178;-79
2022/11/04 08:31:43;;;;;;;1.85;0.70;;;;;;;;;;10618815;27;20038;-78
2022/11/04 08:36:48;;;;;;;0.43;0.25;;;;;;;;;;10609960;27;20069;-79
2022/11/04 08:41:53;;;;;;;1.25;0.70;;;;;;;;;;10612846;27;20400;-79
2022/11/04 08:46:56;;;;;;;1.77;0.80;;;;;;;;;;10606253;27;20227;-79
2022/11/04 08:52:00;;;;;;;1.05;0.63;;;;;;;;;;10618237;27;20043;-79
2022/11/04 08:57:05;;;;;;;0.75;0.32;;;;;;;;;;10612051;27;20051;-79
2022/11/04 09:02:11;;;;;;;2.50;0.70;;;;;;;;;;10616489;27;20062;-79
2022/11/04 09:07:15;;;;;;;1.00;0.68;;;;;;;;;;10602041;27;20039;-79
2022/11/04 09:12:18;;;;;;;3.65;1.20;;;;;;;;;;10611165;28;20449;-79
2022/11/04 09:17:21;;;;;;;2.55;0.60;;;;;;;;;;10607961;27;20374;-80
2022/11/04 09:22:25;;;;;;;1.42;0.73;;;;;;;;;;10617896;28;20153;-79
2022/11/04 09:27:28;;;;;;;1.02;0.57;;;;;;;;;;10618708;28;20039;-78
2022/11/04 09:32:30;;;;;;;2.88;0.88;;;;;;;;;;10623739;28;20118;-77
2022/11/04 09:37:35;;;;;;;1.90;0.70;;;;;;;;;;10591204;27;20031;-79
2022/11/04 09:42:42;;;;;;;3.10;0.60;;;;;;;;;;10557733;28;20057;-79
2022/11/04 09:47:46;;;;;;;1.08;0.80;;;;;;;;;;10576909;27;20032;-80
2022/11/04 09:52:54;;;;;;;2.13;1.00;;;;;;;;;;10608262;27;20047;-80
2022/11/04 09:57:57;;;;;;;0.55;0.55;;;;;;;;;;10612558;27;20067;-80
2022/11/04 10:03:05;;;;;;;2.47;0.70;;;;;;;;;;10628644;27;20472;-80
2022/11/04 10:08:22;;;;;;;1.85;0.98;;;;;;;;;;10617544;27;20122;-79
2022/11/04 10:13:29;;;;;;;1.02;0.40;;;;;;;;;;10608780;27;20209;-80
2022/11/04 10:18:42;;;;;;;1.80;0.90;;;;;;;;;;10615807;27;20426;-79
2022/11/04 10:23:54;;;;;;;0.77;0.60;;;;;;;;;;10624219;27;20035;-79
2022/11/04 10:28:58;;;;;;;2.53;1.40;;;;;;;;;;10608445;27;20038;-79
2022/11/04 10:34:05;;;;;;;3.03;1.20;;;;;;;;;;10623766;27;20047;-80
2022/11/04 10:39:16;;;;;;;2.50;0.65;;;;;;;;;;10612264;27;20488;-78
2022/11/04 10:44:21;;;;;;;2.70;1.20;;;;;;;;;;10623890;27;20047;-80
2022/11/04 10:49:36;;;;;;;4.30;1.20;;;;;;;;;;10595688;27;20126;-80
2022/11/04 10:54:42;;;;;;;3.85;1.25;;;;;;;;;;10623303;27;20055;-80
2022/11/04 10:59:51;;;;;;;1.55;0.57;;;;;;;;;;10602300;27;20070;-79
2022/11/04 11:05:15;;;;;;;1.77;1.05;;;;;;;;;;10624407;27;20031;-79
2022/11/04 11:10:20;;;;;;;0.90;0.68;;;;;;;;;;10617256;27;20438;-80
2022/11/04 11:15:28;;;;;;;2.35;1.00;;;;;;;;;;10540930;28;20090;-80
2022/11/04 11:20:33;;;;;;;3.95;1.70;;;;;;;;;;10602888;27;20039;-80
2022/11/04 11:25:41;;;;;;;2.28;1.27;;;;;;;;;;10626735;27;20035;-79
2022/11/04 11:30:55;;;;;;;1.77;1.17;;;;;;;;;;10617163;27;20045;-80
2022/11/04 11:35:59;;;;;;;2.20;1.20;;;;;;;;;;10612449;27;20112;-80
2022/11/04 11:41:05;;;;;;;3.15;1.55;;;;;;;;;;10615284;27;20104;-80
2022/11/04 11:46:27;;;;;;;1.80;0.95;;;;;;;;;;10621882;27;20549;-80
2022/11/04 11:51:31;;;;;;;1.80;1.35;;;;;;;;;;10604700;27;20565;-80
2022/11/04 11:56:37;;;;;;;;;;;;;;;;;;10610276;27;20036;-80
2022/11/04 12:02:13;;;;;;;1.25;0.70;;;;;;;;;;10615271;27;20382;-79
2022/11/04 12:07:18;;;;;;;3.25;2.05;;;;;;;;;;10579330;27;20032;-79
2022/11/04 12:12:51;;;;;;;0.73;0.45;;;;;;;;;;10609746;27;20031;-79
2022/11/04 12:18:08;;;;;;;2.28;0.85;;;;;;;;;;10611697;27;20039;-79
2022/11/04 12:23:18;;;;;;;1.17;0.40;;;;;;;;;;10619961;27;20069;-79
2022/11/04 12:28:24;;;;;;;0.45;0.38;;;;;;;;;;10606289;27;20046;-79
2022/11/04 12:33:33;;;;;;;1.52;0.57;;;;;;;;;;10609059;27;20055;-79
2022/11/04 12:38:47;;;;;;;2.50;0.80;;;;;;;;;;10598900;27;20035;-79
2022/11/04 12:43:54;;;;;;;0.77;0.60;;;;;;;;;;10622393;27;20054;-79
2022/11/04 12:49:04;;;;;;;1.52;0.95;;;;;;;;;;10608837;27;20031;-79
2022/11/04 12:54:17;;;;;;;4.03;1.17;;;;;;;;;;10618745;27;20388;-79
2022/11/04 12:59:39;;;;;;;1.23;0.80;;;;;;;;;;10606119;27;20255;-79
2022/11/04 13:04:47;;;;;;;1.38;0.60;;;;;;;;;;10557539;27;20186;-80
2022/11/04 13:09:53;;;;;;;0.73;0.63;;;;;;;;;;10610912;27;20039;-81
2022/11/04 13:14:59;;;;;;;3.60;1.30;;;;;;;;;;10617812;28;20137;-81
2022/11/04 13:20:06;;;;;;;1.50;0.98;;;;;;;;;;10612472;27;20038;-80
2022/11/04 13:25:14;;;;;;;2.75;0.50;;;;;;;;;;10626320;27;20411;-80
2022/11/04 13:30:21;;;;;;;2.92;1.10;;;;;;;;;;10608941;27;20042;-79
2022/11/04 13:35:30;;;;;;;4.78;0.85;;;;;;;;;;10616065;27;20056;-79
2022/11/04 13:40:39;;;;;;;0.77;0.60;;;;;;;;;;10620768;27;20470;-80
2022/11/04 13:45:45;;;;;;;2.22;0.95;;;;;;;;;;10626937;27;20100;-80
2022/11/04 13:50:57;;;;;;;2.10;0.80;;;;;;;;;;10597860;27;20039;-80
2022/11/04 13:55:59;;;;;;;3.28;1.15;;;;;;;;;;10622563;27;20050;-80
2022/11/04 14:01:26;;;;;;;2.33;1.30;;;;;;;;;;10620812;27;20055;-80
2022/11/04 14:06:44;;;;;;;4.63;1.67;;;;;;;;;;10622315;27;20043;-81
2022/11/04 14:12:07;;;;;;;2.78;1.73;;;;;;;;;;10625151;27;20504;-80
2022/11/04 14:17:25;;;;;;;3.40;1.42;;;;;;;;;;10623149;27;20035;-79
2022/11/04 14:22:34;;;;;;;3.33;1.30;;;;;;;;;;10621648;27;20516;-79
2022/11/04 14:27:39;;;;;;;3.33;1.08;;;;;;;;;;10621439;27;20039;-79
2022/11/04 14:32:42;;;;;;;2.90;0.90;;;;;;;;;;10625224;27;20130;-80
2022/11/04 14:37:52;;;;;;;5.90;0.90;;;;;;;;;;10622238;27;20045;-80
2022/11/04 14:42:58;;;;;;;1.30;1.02;;;;;;;;;;10619545;27;20031;-80
2022/11/04 14:48:06;;;;;;;3.10;1.30;;;;;;;;;;10619237;27;20066;-80
2022/11/04 14:53:23;;;;;;;0.50;0.50;;;;;;;;;;10624028;27;20091;-79
2022/11/04 14:58:27;;;;;;;3.67;1.10;;;;;;;;;;10601500;27;20045;-79
2022/11/04 15:03:36;;;;;;;1.08;0.40;;;;;;;;;;10615589;27;20118;-79
2022/11/04 15:09:01;;;;;;;1.80;0.93;;;;;;;;;;10601118;27;20406;-79
2022/11/04 15:14:11;;;;;;;2.85;1.42;;;;;;;;;;10626606;27;20031;-80
2022/11/04 15:19:17;;;;;;;1.38;0.60;;;;;;;;;;10618022;27;20044;-79
2022/11/04 15:24:22;;;;;;;2.83;1.13;;;;;;;;;;10541039;28;20154;-80
2022/11/04 15:29:25;;;;;;;2.47;0.88;;;;;;;;;;10584461;27;20049;-80
2022/11/04 15:34:29;;;;;;;1.08;0.28;;;;;;;;;;10626099;27;20039;-80
2022/11/04 15:39:34;;;;;;;1.85;0.90;;;;;;;;;;10596700;27;20066;-80
2022/11/04 15:44:38;;;;;;;0.65;0.55;;;;;;;;;;10622320;27;20047;-80
2022/11/04 15:49:41;;;;;;;1.08;0.70;;;;;;;;;;10612708;27;20421;-79
2022/11/04 15:54:46;;;;;;;3.65;1.08;;;;;;;;;;10620738;27;20046;-80
2022/11/04 15:59:51;;;;;;;2.75;1.00;;;;;;;;;;10612584;27;20085;-80
2022/11/04 16:05:05;;;;;;;0.90;0.45;;;;;;;;;;10620540;27;20046;-79
2022/11/04 16:10:26;;;;;;;5.63;1.67;;;;;;;;;;10595635;27;20039;-79
2022/11/04 16:15:30;;;;;;;4.43;0.45;;;;;;;;;;10535276;28;20048;-79
2022/11/04 16:20:34;;;;;;;;;;;;;;;;;;10590761;27;20069;-79
2022/11/04 16:25:38;;;;;;;2.47;0.93;;;;;;;;;;10620678;27;19920;-81
2022/11/04 16:30:55;;;;;;;2.40;1.05;;;;;;;;;;10602762;27;20042;-80
2022/11/04 16:35:57;;;;;;;3.22;0.88;;;;;;;;;;10608670;27;20050;-80
2022/11/04 16:41:02;;;;;;;3.17;1.40;;;;;;;;;;10611663;27;20027;-80
2022/11/04 16:46:05;;;;;;;1.88;1.10;;;;;;;;;;10617145;27;20035;-80
2022/11/04 16:51:11;;;;;;;1.15;0.93;;;;;;;;;;10614514;27;20084;-81
2022/11/04 16:56:15;;;;;;;3.00;1.25;;;;;;;;;;10607838;27;20477;-80
2022/11/04 17:01:24;;;;;;;2.33;1.48;;;;;;;;;;10610191;27;20035;-79
2022/11/04 17:06:27;;;;;;;1.15;0.63;;;;;;;;;;10606874;27;20035;-79
2022/11/04 17:11:32;;;;;;;2.42;1.10;;;;;;;;;;10614350;27;20047;-80
2022/11/04 17:16:34;;;;;;;;;;;;;;;;;;10620181;27;20039;-79
2022/11/04 17:21:37;;;;;;;4.00;1.20;;;;;;;;;;10602235;28;20372;-80
2022/11/04 17:26:41;;;;;;;2.55;1.33;;;;;;;;;;10606302;28;20031;-81
2022/11/04 17:31:44;;;;;;;0.30;0.30;;;;;;;;;;10617435;28;20032;-80
2022/11/04 17:36:47;;;;;;;5.18;2.63;;;;;;;;;;10615269;28;20046;-80
2022/11/04 17:47:11;;;;;;;4.55;2.00;;;;;;;;;;10619279;28;20502;-80
2022/11/04 17:52:14;;;;;;;3.80;1.73;;;;;;;;;;10563846;28;20050;-79
2022/11/04 17:57:18;;;;;;;3.20;2.00;;;;;;;;;;10571350;28;20043;-80
2022/11/04 18:02:20;;;;;;;7.97;3.10;;;;;;;;;;10608929;28;20073;-80
2022/11/04 18:07:23;;;;;;;12.40;7.63;;;;;;;;;;10596747;27;20130;-80
2022/11/04 18:12:36;;;;;;;10.85;4.30;;;;;;;;;;10617447;27;20084;-80
2022/11/04 18:17:39;;;;;;;6.43;2.50;;;;;;;;;;10600612;27;20517;-80
2022/11/04 18:22:42;;;;;;;6.50;3.10;;;;;;;;;;10580012;28;20501;-80
2022/11/04 18:27:47;;;;;;;5.65;2.63;;;;;;;;;;10606852;27;20035;-79
2022/11/04 18:32:51;;;;;;;4.43;2.08;;;;;;;;;;10600893;27;20381;-80
2022/11/04 18:37:54;;;;;;;5.63;2.33;;;;;;;;;;10627860;27;20039;-80
2022/11/04 18:42:58;;;;;;;4.45;2.30;;;;;;;;;;10622798;27;20407;-79
2022/11/04 18:48:06;;;;;;;3.35;1.70;;;;;;;;;;10614310;27;20032;-80
2022/11/04 18:53:09;;;;;;;5.72;1.85;;;;;;;;;;10631923;27;20035;-80
2022/11/04 18:58:14;;;;;;;8.13;2.53;;;;;;;;;;10613517;27;20653;-81
2022/11/04 19:03:17;;;;;;;4.57;2.08;;;;;;;;;;10625894;27;20043;-80
2022/11/04 19:08:19;;;;;;;4.97;2.20;;;;;;;;;;10615928;27;20044;-80
2022/11/04 19:13:23;;;;;;;8.98;2.00;;;;;;;;;;10611857;27;20043;-80
2022/11/04 19:18:26;;;;;;;6.50;2.63;;;;;;;;;;10596014;27;20088;-80
2022/11/04 19:23:30;;;;;;;4.38;2.03;;;;;;;;;;10623858;27;20427;-80
2022/11/04 19:28:34;;;;;;;8.63;3.17;;;;;;;;;;10614536;27;20092;-80
2022/11/04 19:33:50;;;;;;;9.88;3.97;;;;;;;;;;10606163;27;20039;-80
2022/11/04 19:38:54;;;;;;;2.25;1.35;;;;;;;;;;10597008;27;20039;-80
2022/11/04 19:43:58;;;;;;;10.63;2.90;;;;;;;;;;10620935;27;20047;-80
2022/11/04 19:49:01;;;;;;;31.65;7.30;;;;;;;;;;10610095;27;20070;-80
2022/11/04 19:54:04;;;;;;;6.07;3.15;;;;;;;;;;10618791;27;20039;-79
2022/11/04 19:59:09;;;;;;;6.63;2.58;;;;;;;;;;10559518;28;20496;-79
2022/11/04 20:04:12;;;;;;;7.97;3.92;;;;;;;;;;10605593;27;20073;-79
2022/11/04 20:09:14;;;;;;;3.53;1.70;;;;;;;;;;10595056;27;20038;-80
2022/11/04 20:14:18;;;;;;;5.45;2.35;;;;;;;;;;10624052;27;20031;-80
2022/11/04 20:19:21;;;;;;;5.28;1.67;;;;;;;;;;10617148;27;20043;-79
2022/11/04 20:24:25;;;;;;;2.75;1.17;;;;;;;;;;10622754;27;20031;-80
2022/11/04 20:29:29;;;;;;;8.43;3.47;;;;;;;;;;10597697;27;20037;-80
2022/11/04 20:34:33;;;;;;;1.10;0.45;;;;;;;;;;10620644;27;20504;-80
2022/11/04 20:39:39;;;;;;;7.10;3.28;;;;;;;;;;10604836;27;20099;-80
2022/11/04 20:44:44;;;;;;;3.10;1.23;;;;;;;;;;10618850;27;20066;-79
2022/11/04 20:49:48;;;;;;;8.32;3.35;;;;;;;;;;10612092;27;20039;-80
2022/11/04 20:54:50;;;;;;;5.18;2.55;;;;;;;;;;10618313;27;20487;-80
2022/11/04 20:59:54;;;;;;;10.30;2.95;;;;;;;;;;10610720;27;20031;-80
2022/11/04 21:04:57;;;;;;;9.38;3.40;;;;;;;;;;10619098;27;20043;-80
2022/11/04 21:10:00;;;;;;;5.05;2.63;;;;;;;;;;10609648;27;20035;-80
2022/11/04 21:15:39;;;;;;;8.27;2.97;;;;;;;;;;10618122;28;20541;-80
2022/11/04 21:20:27;;;;;;;;;;;;;;;;;;10607058;28;20511;-80
2022/11/04 21:25:29;;;;;;;8.23;2.42;;;;;;;;;;10589313;27;19924;-80
2022/11/04 21:30:34;;;;;;;7.00;1.70;;;;;;;;;;10614601;28;20039;-80
2022/11/04 21:35:38;;;;;;;2.20;1.23;;;;;;;;;;10610422;27;20552;-80
2022/11/04 21:40:41;;;;;;;6.03;2.75;;;;;;;;;;10612292;27;20050;-80
2022/11/04 21:45:45;;;;;;;4.47;1.77;;;;;;;;;;10634138;27;20504;-79
2022/11/04 21:50:48;;;;;;;13.98;5.22;;;;;;;;;;10624086;27;20450;-80
2022/11/04 21:55:51;;;;;;;21.48;8.30;;;;;;;;;;10625301;27;20035;-81
2022/11/04 22:00:56;;;;;;;19.15;8.52;;;;;;;;;;10608550;27;20039;-81
2022/11/04 22:05:59;;;;;;;9.38;3.67;;;;;;;;;;10615837;27;20374;-81
2022/11/04 22:11:06;;;;;;;5.25;2.75;;;;;;;;;;10617703;27;20488;-81
2022/11/04 22:16:11;;;;;;;5.82;2.67;;;;;;;;;;10624697;27;20043;-81
2022/11/04 22:21:16;;;;;;;3.47;1.42;;;;;;;;;;10624370;27;20122;-79
2022/11/04 22:26:20;;;;;;;5.28;1.23;;;;;;;;;;10618482;27;20557;-80
2022/11/04 22:31:26;;;;;;;2.03;1.20;;;;;;;;;;10606913;27;20039;-80
2022/11/04 22:36:29;;;;;;;3.42;1.35;;;;;;;;;;10615893;27;20058;-80
2022/11/04 22:41:33;;;;;;;1.03;0.90;;;;;;;;;;10618916;27;20192;-80
2022/11/04 22:46:37;;;;;;;1.27;1.10;;;;;;;;;;10621731;27;20118;-80
2022/11/04 22:51:40;;;;;;;1.88;0.93;;;;;;;;;;10606006;27;20130;-79
2022/11/04 22:56:42;;;;;;;2.60;1.25;;;;;;;;;;10614907;27;20058;-80
2022/11/04 23:01:46;;;;;;;4.65;1.98;;;;;;;;;;10622216;27;20036;-80
2022/11/04 23:06:49;;;;;;;;;;;;;;;;;;10615014;27;20039;-80
2022/11/04 23:37:10;;;;;;;0.95;0.65;;;;;;;;;;10622713;27;20043;-80
2022/11/04 23:38:41;;;;;;;3.03;1.35;;;;;;;;;;10607405;27;20071;-80
2022/11/04 23:43:51;;;;;;;1.83;1.25;;;;;;;;;;10621215;27;20066;-80
